createdAt,value
2023-03-24T00:01:22.512Z,9.52
2023-03-24T00:03:52.549Z,9.50
2023-03-24T00:06:22.949Z,9.47
2023-03-24T00:08:50.900Z,9.48
2023-03-24T00:11:19.548Z,9.48
2023-03-24T00:13:50.515Z,9.50
2023-03-24T00:16:19.835Z,9.50
2023-03-24T00:18:53.152Z,9.40
2023-03-24T00:21:25.685Z,9.47
2023-03-24T00:23:55.798Z,9.45
2023-03-24T00:26:25.247Z,9.53
2023-03-24T00:28:53.574Z,9.48
2023-03-24T00:31:22.326Z,9.57
2023-03-24T00:33:53.983Z,9.43
2023-03-24T00:36:24.553Z,9.42
2023-03-24T00:38:53.473Z,9.46
2023-03-24T00:41:21.723Z,9.55
2023-03-24T00:43:50.998Z,9.54
2023-03-24T00:46:27.809Z,9.49
2023-03-24T00:49:02.471Z,9.51
2023-03-24T00:51:32.701Z,9.54
2023-03-24T00:54:02.164Z,9.55
2023-03-24T00:56:33.903Z,9.58
2023-03-24T00:59:02.477Z,9.54
2023-03-24T01:01:36.630Z,9.57
2023-03-24T01:04:06.200Z,9.51
2023-03-24T01:06:37.308Z,9.48
2023-03-24T01:09:06.487Z,9.56
2023-03-24T01:11:38.839Z,9.51
2023-03-24T01:14:06.947Z,9.58
2023-03-24T01:16:34.451Z,9.65
2023-03-24T01:19:02.290Z,9.60
2023-03-24T01:21:29.838Z,9.60
2023-03-24T01:23:58.066Z,9.54
2023-03-24T01:26:25.559Z,9.57
2023-03-24T01:28:53.182Z,9.65
2023-03-24T01:31:20.851Z,9.68
2023-03-24T01:33:48.441Z,9.64
2023-03-24T01:36:16.098Z,9.61
2023-03-24T01:38:43.607Z,9.59
2023-03-24T01:41:11.698Z,9.66
2023-03-24T01:43:39.303Z,9.59
2023-03-24T01:46:18.013Z,9.58
2023-03-24T01:49:02.752Z,9.66
2023-03-24T01:51:38.358Z,9.64
2023-03-24T01:54:11.260Z,9.52
2023-03-24T01:56:44.320Z,9.49
2023-03-24T01:59:19.404Z,9.56
2023-03-24T02:02:03.303Z,9.43
2023-03-24T02:04:48.618Z,9.43
2023-03-24T02:07:27.239Z,9.39
2023-03-24T02:09:54.842Z,9.36
2023-03-24T02:12:22.520Z,9.35
2023-03-24T02:14:51.571Z,9.36
2023-03-24T02:17:52.018Z,9.38
2023-03-24T02:20:19.544Z,9.37
2023-03-24T02:23:18.034Z,9.47
2023-03-24T02:25:45.627Z,9.56
2023-03-24T02:28:33.317Z,9.52
2023-03-24T02:31:10.029Z,9.56
2023-03-24T02:34:18.199Z,9.59
2023-03-24T02:37:14.772Z,9.63
2023-03-24T02:40:11.791Z,9.79
2023-03-24T02:43:09.723Z,9.73
2023-03-24T02:45:43.379Z,9.69
2023-03-24T02:48:11.153Z,9.66
2023-03-24T02:51:04.735Z,9.69
2023-03-24T02:53:44.319Z,9.69
2023-03-24T02:57:05.128Z,9.78
2023-03-24T03:00:20.887Z,9.74
2023-03-24T03:03:41.666Z,9.69
2023-03-24T03:06:18.370Z,9.65
2023-03-24T03:08:48.530Z,9.68
2023-03-24T03:11:17.676Z,9.62
2023-03-24T03:14:36.912Z,9.86
2023-03-24T03:17:12.704Z,9.74
2023-03-24T03:19:50.449Z,9.69
2023-03-24T03:22:34.407Z,9.73
2023-03-24T03:25:04.454Z,9.72
2023-03-24T03:27:39.338Z,9.76
2023-03-24T03:30:45.453Z,9.81
2023-03-24T03:33:24.780Z,9.77
2023-03-24T03:35:59.093Z,9.83
2023-03-24T03:38:55.996Z,9.82
2023-03-24T03:41:24.272Z,9.85
2023-03-24T03:43:52.606Z,9.84
2023-03-24T03:46:20.287Z,9.78
2023-03-24T03:48:50.336Z,9.75
2023-03-24T03:51:19.903Z,9.72
2023-03-24T03:53:59.123Z,9.65
2023-03-24T03:56:29.731Z,9.57
2023-03-24T03:59:33.989Z,9.65
2023-03-24T04:02:29.028Z,9.54
2023-03-24T04:05:26.280Z,9.48
2023-03-24T04:09:03.363Z,9.52
2023-03-24T04:11:45.235Z,9.40
2023-03-24T04:14:48.691Z,9.44
2023-03-24T04:18:04.740Z,9.33
2023-03-24T04:21:48.638Z,9.24
2023-03-24T04:24:29.465Z,9.25
2023-03-24T04:27:09.422Z,9.19
2023-03-24T04:29:48.308Z,9.12
2023-03-24T04:32:42.194Z,9.18
2023-03-24T04:35:20.735Z,9.06
2023-03-24T04:38:17.341Z,9.06
2023-03-24T04:40:52.123Z,9.03
2023-03-24T04:43:25.022Z,9.01
2023-03-24T04:45:57.992Z,9.03
2023-03-24T04:48:51.832Z,8.97
2023-03-24T04:51:27.158Z,8.95
2023-03-24T04:54:12.508Z,8.95
2023-03-24T04:56:56.967Z,8.99
2023-03-24T04:59:38.619Z,8.90
2023-03-24T05:02:07.521Z,8.85
2023-03-24T05:04:45.883Z,8.87
2023-03-24T05:07:24.957Z,8.87
2023-03-24T05:09:57.496Z,8.84
2023-03-24T05:12:25.215Z,8.78
2023-03-24T05:15:12.587Z,8.74
2023-03-24T05:17:41.625Z,8.77
2023-03-24T05:20:12.908Z,8.80
2023-03-24T05:22:43.719Z,8.77
2023-03-24T05:25:12.067Z,8.75
2023-03-24T05:28:16.127Z,8.71
2023-03-24T05:30:54.217Z,8.69
2023-03-24T05:33:54.139Z,8.79
2023-03-24T05:36:22.989Z,8.73
2023-03-24T05:38:55.653Z,8.72
2023-03-24T05:41:26.728Z,8.74
2023-03-24T05:43:54.274Z,8.82
2023-03-24T05:46:23.298Z,8.77
2023-03-24T05:48:52.937Z,8.83
2023-03-24T05:51:21.733Z,8.82
2023-03-24T05:53:59.349Z,8.87
2023-03-24T05:56:47.176Z,8.99
2023-03-24T05:59:21.330Z,9.02
2023-03-24T06:02:05.424Z,9.12
2023-03-24T06:04:46.727Z,9.02
2023-03-24T06:07:18.164Z,9.05
2023-03-24T06:09:47.540Z,9.05
2023-03-24T06:12:16.706Z,9.04
2023-03-24T06:14:55.959Z,9.01
2023-03-24T06:17:24.831Z,8.91
2023-03-24T06:20:03.027Z,8.97
2023-03-24T06:22:33.597Z,8.91
2023-03-24T06:25:03.813Z,8.96
2023-03-24T06:27:35.937Z,8.89
2023-03-24T06:30:05.690Z,8.90
2023-03-24T06:32:34.399Z,8.89
2023-03-24T06:35:02.419Z,8.91
2023-03-24T06:37:37.153Z,8.95
2023-03-24T06:40:10.363Z,8.93
2023-03-24T06:42:42.779Z,8.93
2023-03-24T06:45:14.350Z,8.97
2023-03-24T06:47:47.866Z,9.12
2023-03-24T06:50:16.727Z,9.13
2023-03-24T06:52:46.582Z,9.11
2023-03-24T06:55:21.364Z,9.14
2023-03-24T06:57:52.844Z,9.21
2023-03-24T07:01:00.999Z,9.38
2023-03-24T07:03:39.260Z,9.34
2023-03-24T07:06:25.804Z,9.35
2023-03-24T07:08:59.943Z,9.33
2023-03-24T07:11:29.831Z,9.28
2023-03-24T07:13:59.919Z,9.29
2023-03-24T07:16:29.259Z,9.25
2023-03-24T07:19:10.590Z,9.35
2023-03-24T07:21:40.984Z,9.27
2023-03-24T07:24:08.512Z,9.22
2023-03-24T07:26:48.047Z,9.23
2023-03-24T07:29:22.164Z,9.24
2023-03-24T07:32:15.968Z,9.27
2023-03-24T07:34:45.828Z,9.20
2023-03-24T07:37:13.581Z,9.18
2023-03-24T07:39:41.298Z,9.21
2023-03-24T07:42:11.816Z,9.19
2023-03-24T07:44:57.234Z,9.29
2023-03-24T07:47:27.567Z,9.34
2023-03-24T07:49:56.774Z,9.41
2023-03-24T07:52:24.366Z,9.40
2023-03-24T07:54:58.656Z,9.39
2023-03-24T07:57:48.303Z,9.43
2023-03-24T08:00:25.089Z,9.43
2023-03-24T08:03:14.623Z,9.47
2023-03-24T08:05:48.756Z,9.51
2023-03-24T08:08:40.497Z,9.58
2023-03-24T08:11:08.117Z,9.60
2023-03-24T08:13:37.769Z,9.68
2023-03-24T08:16:05.571Z,9.68
2023-03-24T08:18:35.155Z,9.62
2023-03-24T08:43:44.258Z,10.42
2023-03-24T08:46:40.102Z,10.51
2023-03-24T08:49:07.772Z,10.57
2023-03-24T08:51:47.325Z,10.67
2023-03-24T08:54:17.729Z,10.80
2023-03-24T08:56:45.531Z,10.96
2023-03-24T08:59:13.247Z,10.94
2023-03-24T09:01:40.928Z,10.88
2023-03-24T09:04:08.388Z,10.84
2023-03-24T09:06:35.826Z,10.86
2023-03-24T09:09:03.451Z,10.90
2023-03-24T09:11:31.325Z,10.88
2023-03-24T09:13:59.105Z,10.77
2023-03-24T09:16:26.944Z,10.72
2023-03-24T09:18:54.487Z,10.63
2023-03-24T09:21:21.934Z,10.64
2023-03-24T09:23:49.540Z,10.61
2023-03-24T09:26:17.085Z,10.69
2023-03-24T09:28:44.648Z,10.74
2023-03-24T09:31:12.206Z,10.79
2023-03-24T09:33:39.905Z,10.76
2023-03-24T09:36:08.088Z,10.78
2023-03-24T09:38:36.112Z,10.86
2023-03-24T09:41:04.605Z,10.88
2023-03-24T09:43:32.151Z,10.90
2023-03-24T09:46:02.978Z,10.89
2023-03-24T09:48:59.812Z,11.03
2023-03-24T09:51:30.034Z,10.88
2023-03-24T09:54:22.386Z,10.87
2023-03-24T09:56:52.069Z,10.65
2023-03-24T09:59:34.770Z,10.59
2023-03-24T10:02:10.782Z,10.38
2023-03-24T10:04:38.681Z,10.38
2023-03-24T10:07:30.955Z,10.37
2023-03-24T10:10:00.269Z,10.27
2023-03-24T10:12:40.305Z,10.17
2023-03-24T10:15:37.135Z,10.09
2023-03-24T10:18:33.479Z,10.17
2023-03-24T10:21:25.887Z,10.06
2023-03-24T10:24:12.098Z,10.09
2023-03-24T10:26:56.948Z,10.07
2023-03-24T10:29:31.326Z,10.14
2023-03-24T10:32:21.019Z,10.29
2023-03-24T10:34:55.837Z,10.29
2023-03-24T10:37:23.653Z,10.35
2023-03-24T10:39:52.060Z,10.50
2023-03-24T10:42:25.853Z,10.69
2023-03-24T10:44:53.538Z,10.80
2023-03-24T10:47:32.874Z,10.90
2023-03-24T10:50:12.176Z,10.87
2023-03-24T10:52:49.010Z,10.90
2023-03-24T10:55:19.582Z,10.94
2023-03-24T10:57:50.929Z,10.86
2023-03-24T11:00:30.169Z,10.81
2023-03-24T11:03:02.396Z,10.84
2023-03-24T11:05:36.947Z,10.93
2023-03-24T11:08:29.992Z,11.11
2023-03-24T11:10:58.244Z,11.09
2023-03-24T11:13:34.548Z,11.40
2023-03-24T11:16:08.562Z,12.18
2023-03-24T11:18:36.628Z,13.48
2023-03-24T11:21:07.139Z,15.53
2023-03-24T11:23:38.279Z,16.17
2023-03-24T11:26:16.933Z,17.07
2023-03-24T11:28:53.149Z,18.71
2023-03-24T11:31:32.247Z,18.67
2023-03-24T11:45:46.163Z,15.23
2023-03-24T11:48:16.826Z,14.77
2023-03-24T11:51:27.670Z,14.52
2023-03-24T11:59:30.579Z,13.97
2023-03-24T12:15:59.552Z,12.35
2023-03-24T12:18:48.133Z,12.13
2023-03-24T12:21:59.062Z,11.93
2023-03-24T12:25:22.445Z,11.90
2023-03-24T12:32:01.665Z,14.63
2023-03-24T12:34:49.969Z,14.93
2023-03-24T12:42:03.037Z,13.85
2023-03-24T12:45:51.448Z,13.47
2023-03-24T12:49:13.154Z,13.21
2023-03-24T12:51:53.193Z,13.12
2023-03-24T12:55:14.491Z,14.27
2023-03-24T12:58:39.416Z,14.83
2023-03-24T13:01:43.826Z,13.99
2023-03-24T13:05:10.655Z,13.27
2023-03-24T13:08:43.465Z,12.66
2023-03-24T13:12:31.523Z,12.44
2023-03-24T13:16:06.831Z,12.64
2023-03-24T13:19:15.600Z,12.85
2023-03-24T13:21:53.076Z,12.85
2023-03-24T13:24:21.308Z,12.82
2023-03-24T13:27:28.916Z,12.82
2023-03-24T13:30:39.175Z,12.76
2023-03-24T13:33:27.470Z,12.68
2023-03-24T13:36:20.148Z,12.55
2023-03-24T13:38:55.545Z,12.22
2023-03-24T13:41:27.434Z,11.99
2023-03-24T13:44:01.529Z,11.87
2023-03-24T13:46:29.809Z,11.69
2023-03-24T13:48:59.159Z,11.68
2023-03-24T13:51:33.530Z,11.64
2023-03-24T13:54:06.086Z,11.55
2023-03-24T13:56:37.199Z,11.44
2023-03-24T13:59:13.518Z,11.37
2023-03-24T14:01:44.103Z,11.27
2023-03-24T14:04:28.395Z,11.26
2023-03-24T14:06:59.015Z,11.14
2023-03-24T14:09:31.006Z,11.05
2023-03-24T14:12:04.333Z,11.05
2023-03-24T14:14:36.302Z,11.02
2023-03-24T14:17:12.391Z,11.02
2023-03-24T14:19:43.913Z,11.02
2023-03-24T14:22:14.194Z,10.99
2023-03-24T14:24:45.006Z,11.02
2023-03-24T14:27:29.486Z,11.06
2023-03-24T14:30:01.058Z,10.98
2023-03-24T14:32:30.617Z,10.91
2023-03-24T14:35:00.303Z,10.89
2023-03-24T14:37:29.089Z,10.92
2023-03-24T14:39:58.561Z,10.89
2023-03-24T14:42:31.824Z,10.93
2023-03-24T14:45:05.799Z,10.85
2023-03-24T14:47:38.742Z,10.88
2023-03-24T14:50:21.912Z,10.88
2023-03-24T14:52:59.459Z,10.81
2023-03-24T14:55:28.256Z,10.76
2023-03-24T14:58:01.042Z,10.72
2023-03-24T15:01:07.548Z,10.80
2023-03-24T15:03:42.181Z,10.64
2023-03-24T15:06:18.042Z,10.63
2023-03-24T15:09:01.391Z,10.60
2023-03-24T15:11:34.594Z,10.54
2023-03-24T15:14:28.442Z,10.62
2023-03-24T15:17:16.389Z,10.50
2023-03-24T15:19:44.067Z,10.43
2023-03-24T15:22:15.464Z,10.41
2023-03-24T15:24:43.465Z,10.38
2023-03-24T15:27:15.599Z,10.37
2023-03-24T15:29:46.645Z,10.35
2023-03-24T15:32:23.312Z,10.32
2023-03-24T15:34:52.573Z,10.28
2023-03-24T15:37:24.360Z,10.28
2023-03-24T15:40:01.943Z,10.22
2023-03-24T15:42:42.825Z,10.19
2023-03-24T15:45:32.093Z,10.25
2023-03-24T15:48:08.744Z,10.14
2023-03-24T15:50:42.019Z,10.13
2023-03-24T15:53:16.041Z,10.12
2023-03-24T15:55:43.942Z,10.07
2023-03-24T15:58:28.859Z,10.12
2023-03-24T16:01:00.114Z,10.07
2023-03-24T16:03:32.429Z,10.01
2023-03-24T16:06:00.065Z,10.03
2023-03-24T16:08:35.976Z,10.04
2023-03-24T16:11:11.021Z,10.18
2023-03-24T16:13:40.691Z,10.05
2023-03-24T16:16:27.498Z,10.06
2023-03-24T16:18:59.614Z,10.00
2023-03-24T16:57:03.509Z,9.78
2023-03-24T16:59:31.083Z,9.81
2023-03-24T17:02:06.141Z,9.74
2023-03-24T17:04:34.117Z,9.78
2023-03-24T17:07:01.670Z,9.72
2023-03-24T17:09:30.894Z,9.72
2023-03-24T17:12:00.675Z,9.75
2023-03-24T17:14:30.894Z,9.71
2023-03-24T17:16:59.776Z,9.61
2023-03-24T17:19:27.326Z,9.53
2023-03-24T17:22:03.425Z,9.45
2023-03-24T17:24:36.083Z,9.35
2023-03-24T17:27:10.429Z,9.28
2023-03-24T17:29:37.973Z,9.21
2023-03-24T17:32:05.586Z,9.11
2023-03-24T17:34:33.131Z,9.08
2023-03-24T17:37:01.094Z,9.03
2023-03-24T17:39:28.734Z,8.99
2023-03-24T17:42:02.007Z,8.92
2023-03-24T17:44:36.937Z,8.89
2023-03-24T17:47:07.630Z,8.84
2023-03-24T17:49:35.180Z,8.80
2023-03-24T17:52:32.177Z,8.85
2023-03-24T17:55:07.551Z,8.77
2023-03-24T17:58:02.189Z,8.77
2023-03-24T18:00:34.133Z,8.61
2023-03-24T18:03:04.458Z,8.64
2023-03-24T18:05:35.913Z,8.60
2023-03-24T18:08:04.250Z,8.58
2023-03-24T18:10:34.351Z,8.54
2023-03-24T18:13:03.864Z,8.53
2023-03-24T18:15:31.875Z,8.52
2023-03-24T18:17:59.387Z,8.46
2023-03-24T18:20:27.626Z,8.43
2023-03-24T18:22:55.106Z,8.42
2023-03-24T18:25:22.797Z,8.43
2023-03-24T18:27:50.225Z,8.43
2023-03-24T18:30:17.764Z,8.44
2023-03-24T18:32:45.610Z,8.41
2023-03-24T18:35:16.422Z,8.40
2023-03-24T18:37:44.601Z,8.31
2023-03-24T18:40:12.591Z,8.33
2023-03-24T18:42:40.425Z,8.35
2023-03-24T18:45:08.566Z,8.32
2023-03-24T18:47:36.485Z,8.32
2023-03-24T18:50:04.414Z,8.23
2023-03-24T18:52:33.216Z,8.23
2023-03-24T18:55:02.520Z,8.26
2023-03-24T18:57:31.372Z,8.23
2023-03-24T19:00:00.920Z,8.24
2023-03-24T19:02:30.796Z,8.17
2023-03-24T19:04:58.455Z,8.17
2023-03-24T19:07:26.407Z,8.12
2023-03-24T19:09:54.874Z,8.12
2023-03-24T19:12:22.533Z,8.15
2023-03-24T19:14:50.856Z,8.13
2023-03-24T19:17:18.370Z,8.10
2023-03-24T19:19:46.008Z,8.09
2023-03-24T19:22:15.446Z,8.11
2023-03-24T19:24:42.983Z,8.09
2023-03-24T19:27:10.453Z,8.06
2023-03-24T19:29:38.047Z,8.12
2023-03-24T19:32:05.812Z,8.11
2023-03-24T19:34:33.396Z,8.12
2023-03-24T19:37:00.897Z,8.03
2023-03-24T19:39:28.393Z,8.06
2023-03-24T19:41:56.045Z,8.07
2023-03-24T19:44:23.657Z,8.03
2023-03-24T19:46:51.104Z,8.00
2023-03-24T19:49:19.038Z,7.96
2023-03-24T19:51:47.454Z,7.98
2023-03-24T19:54:15.530Z,7.98
2023-03-24T19:56:43.273Z,7.97
2023-03-24T19:59:10.793Z,7.97
2023-03-24T20:01:38.246Z,7.92
2023-03-24T20:04:05.925Z,7.90
2023-03-24T20:06:33.557Z,7.88
2023-03-24T20:09:01.318Z,7.90
2023-03-24T20:11:28.873Z,7.87
2023-03-24T20:13:56.595Z,7.88
2023-03-24T20:16:24.781Z,7.83
2023-03-24T20:18:52.629Z,7.84
2023-03-24T20:21:24.650Z,7.83
2023-03-24T20:23:52.771Z,7.81
2023-03-24T20:26:20.591Z,7.81
2023-03-24T20:28:48.377Z,7.79
2023-03-24T20:31:16.651Z,7.73
2023-03-24T20:33:44.196Z,7.62
2023-03-24T20:36:12.087Z,7.70
2023-03-24T20:38:39.627Z,7.64
2023-03-24T20:41:07.708Z,7.72
2023-03-24T20:43:37.352Z,7.71
2023-03-24T20:46:09.780Z,7.67
2023-03-24T20:48:37.965Z,7.61
2023-03-24T20:51:07.828Z,7.59
2023-03-24T20:53:36.063Z,7.62
2023-03-24T20:56:09.490Z,7.54
2023-03-24T20:58:38.151Z,7.52
2023-03-24T21:01:20.509Z,7.49
2023-03-24T21:03:53.285Z,7.52
2023-03-24T21:06:21.233Z,7.50
2023-03-24T21:08:48.689Z,7.49
2023-03-24T21:11:16.304Z,7.48
2023-03-24T21:13:44.127Z,7.42
2023-03-24T21:16:13.103Z,7.43
2023-03-24T21:18:46.030Z,7.41
2023-03-24T21:21:15.416Z,7.41
2023-03-24T21:23:43.495Z,7.45
2023-03-24T21:26:17.393Z,7.50
2023-03-24T21:28:45.463Z,7.54
2023-03-24T21:31:24.487Z,7.61
2023-03-24T21:33:52.966Z,7.53
2023-03-24T21:36:22.224Z,7.60
2023-03-24T21:38:51.823Z,7.58
2023-03-24T21:41:20.341Z,7.57
2023-03-24T21:43:51.383Z,7.53
2023-03-24T21:46:22.104Z,7.52
2023-03-24T21:48:52.283Z,7.55
2023-03-24T21:51:33.979Z,7.58
2023-03-24T21:54:03.643Z,7.54
2023-03-24T21:56:33.136Z,7.55
2023-03-24T21:59:01.139Z,7.50
2023-03-24T22:01:28.870Z,7.51
2023-03-24T22:03:58.837Z,7.47
2023-03-24T22:06:29.063Z,7.47
2023-03-24T22:08:58.773Z,7.46
2023-03-24T22:11:26.453Z,7.47
2023-03-24T22:13:56.352Z,7.54
2023-03-24T22:16:23.820Z,7.46
2023-03-24T22:18:53.062Z,7.45
2023-03-24T22:21:20.631Z,7.50
2023-03-24T22:23:48.071Z,7.49
2023-03-24T22:26:19.213Z,7.51
2023-03-24T22:28:46.814Z,7.53
2023-03-24T22:31:16.777Z,7.58
2023-03-24T22:33:45.345Z,7.56
2023-03-24T22:36:12.891Z,7.62
2023-03-24T22:38:40.680Z,7.68
2023-03-24T22:41:10.812Z,7.66
2023-03-24T22:43:41.859Z,7.63
2023-03-24T22:46:11.917Z,7.65
2023-03-24T22:48:42.183Z,7.67
2023-03-24T22:51:10.616Z,7.63
2023-03-24T22:53:38.214Z,7.67
2023-03-24T22:56:06.417Z,7.57
2023-03-24T22:58:35.839Z,7.52
2023-03-24T23:01:04.938Z,7.46
2023-03-24T23:03:33.432Z,7.43
2023-03-24T23:06:05.158Z,7.43
2023-03-24T23:08:33.768Z,7.44
2023-03-24T23:11:01.498Z,7.45
2023-03-24T23:13:30.888Z,7.48
2023-03-24T23:15:58.596Z,7.44
2023-03-24T23:18:26.221Z,7.51
2023-03-24T23:21:07.910Z,7.46
2023-03-24T23:23:36.810Z,7.38
2023-03-24T23:26:05.667Z,7.37
2023-03-24T23:28:33.716Z,7.39
2023-03-24T23:31:01.437Z,7.44
2023-03-24T23:33:29.390Z,7.39
2023-03-24T23:35:58.829Z,7.38
2023-03-24T23:38:27.555Z,7.38
2023-03-24T23:40:55.111Z,7.32
2023-03-24T23:43:22.774Z,7.33
2023-03-24T23:45:55.285Z,7.37
2023-03-24T23:48:23.921Z,7.25
2023-03-24T23:51:02.581Z,7.33
2023-03-24T23:53:30.806Z,7.35
2023-03-24T23:56:06.756Z,7.33
2023-03-24T23:58:37.143Z,7.34
